Laughlin Air Force Base
KDLF : now visible

Aeroporto :











RITROVATECI SU...

 
LOGIN :

Iscrizione | Disclaimer

   EN    FR    IT 

 









Sommario :    VFR   VFR Marginale   IFR   IFR Intensivo   IFR Molto Intensivo
Visibilità : 
Base nubi : 
>= 8 km
>= 3000ft
5 / 8 km
1000 / 3000 ft
1500m / 5 km
500 / 1000 ft
800 / 1500m
200 / 500 ft
< 800m
< 200 ft
Simboli :   Temporali  Nebbia  Neve Forte  Precipitazioni Forti  Vento > 20 kt







- Altitudine del aeroporto : 1082 ft


KDLF - Laughlin Air Force Base

ULTIMO METAR :
  • 241924Z AUTO 02011G18KT 10SM BKN040 OVC047 18/15 A2990 RMK AO2 DZE1857RAB1857E08DZB08E12RAB12E22DZB22E24 SLP117

METARs OBSOLETI :
  • 241856Z AUTO 35011KT 10SM -DZ OVC033 18/16 A2991 RMK AO2 RAE39DZB39E40RAB40E53DZB53 SLP120 P0000 T01790159
  • 241806Z AUTO 33008KT 10SM -RA BKN030 OVC035 18/16 A2991 RMK AO2 SLP120
  • 241756Z AUTO 34007KT 10SM -RA OVC027 18/16 A2991 RMK AO2 RAE00DZB00E24RAB24E38DZB38E46RAB46 SLP120 P0001 60079 T01750160 10176 20161 50019
  • 241746Z AUTO 36006KT 10SM -DZ OVC027 17/16 A2990 RMK AO2 RAE00DZB00E24RAB24E38DZB38 CIG 026 RWY31 SLP118
  • 241716Z AUTO 34007KT 10SM -DZ FEW010 BKN020 OVC029 17/16 A2991 RMK AO2 RAE00DZB00 SLP121

TAF AMD TAF KDLF
Valido dal 24 a 16 ore il 25 a 16 ore UTC


241655Z 2416/2516 07010KT 4800 -SHRA VCTS OVC025CB QNH2975INS
TEMPO 2416/2420 09015G35KT 2400 TSRAGR OVC020CB
BECMG 2419/2420 33012G20KT 9999 VCSH OVC020 QNH2968INS
TEMPO 2421/2424 32012G25KT 4800 -TSRA OVC020CB
BECMG 2507/2508 33009KT 9999 NSW FEW060 QNH2976INS TX27/2422Z TN15/2510Z LAST NO AMDS AFT 2416 NEXT 2510
FIR KZHU / America del Nord



MetMap, La meteo Aeronautica in un colpo d'occhio ! - Copyright ORBIFLY Dicembre 2007 - Disclaimer

ORBIFLY MET'MAP TEAM :

Programmazione e sviluppo : Alexandra Zaïnal
Concezione e sviluppo : Baudouin d'Aumeries
Co-Programmazione e sviluppo : Marc-Olivier Méhu
Supporto tecnico e logistico : Manuel Goepfert
Aiuto per la traduzione : Arnaldo La Scala

Contatto : metmap@orbifly.com




FONTI E CREDITI :

   NOAA       Earth
Advisory